createdAt,value
2023-06-18T00:01:46.529Z,99120.64
2023-06-18T00:04:16.746Z,99119.23
2023-06-18T00:06:46.613Z,99120.02
2023-06-18T00:09:16.502Z,99118.83
2023-06-18T00:11:46.556Z,99117.25
2023-06-18T00:14:16.446Z,99114.05
2023-06-18T00:16:46.375Z,99114.05
2023-06-18T00:19:16.130Z,99113.11
2023-06-18T00:21:46.204Z,99104.42
2023-06-18T00:24:16.242Z,99102.81
2023-06-18T00:26:46.172Z,99105.88
2023-06-18T00:29:16.807Z,99105.26
2023-06-18T00:31:46.595Z,99107.58
2023-06-18T00:34:18.437Z,99112.08
2023-06-18T00:36:51.835Z,99109.26
2023-06-18T00:39:23.295Z,99111.58
2023-06-18T00:41:53.295Z,99110.43
2023-06-18T00:44:23.139Z,99108.27
2023-06-18T00:46:57.413Z,99105.13
2023-06-18T00:49:27.740Z,99106.50
2023-06-18T00:51:57.860Z,99104.98
2023-06-18T00:54:28.483Z,99105.55
2023-06-18T00:57:00.876Z,99108.23
2023-06-18T00:59:30.989Z,99105.23
2023-06-18T01:02:02.974Z,99103.04
2023-06-18T01:04:34.327Z,99100.98
2023-06-18T01:07:06.245Z,99104.43
2023-06-18T01:09:37.696Z,99104.09
2023-06-18T01:12:09.108Z,99106.34
2023-06-18T01:14:38.954Z,99105.55
2023-06-18T01:17:10.080Z,99105.54
2023-06-18T01:19:47.526Z,99105.48
2023-06-18T01:22:27.789Z,99105.23
2023-06-18T01:25:00.135Z,99105.45
2023-06-18T01:27:32.653Z,99109.90
2023-06-18T01:30:03.329Z,99112.90
2023-06-18T01:32:33.853Z,99105.41
2023-06-18T01:35:05.957Z,99106.15
2023-06-18T01:37:42.051Z,99104.89
2023-06-18T01:40:17.841Z,99108.99
2023-06-18T01:42:51.032Z,99112.01
2023-06-18T01:45:23.992Z,99114.89
2023-06-18T01:47:59.205Z,99115.21
2023-06-18T01:50:29.247Z,99113.30
2023-06-18T01:53:00.214Z,99115.81
2023-06-18T01:55:30.846Z,99115.27
2023-06-18T01:58:00.891Z,99117.51
2023-06-18T02:00:30.869Z,99113.96
2023-06-18T02:03:01.345Z,99120.77
2023-06-18T02:05:31.256Z,99124.13
2023-06-18T02:08:01.343Z,99120.56
2023-06-18T02:10:31.611Z,99120.48
2023-06-18T02:13:01.512Z,99123.96
2023-06-18T02:15:31.589Z,99123.67
2023-06-18T02:18:02.061Z,99123.05
2023-06-18T02:20:32.169Z,99123.63
2023-06-18T02:23:05.398Z,99126.17
2023-06-18T02:25:35.296Z,99130.31
2023-06-18T02:28:05.762Z,99128.83
2023-06-18T02:30:36.367Z,99130.55
2023-06-18T02:33:11.634Z,99132.30
2023-06-18T02:35:43.021Z,99133.51
2023-06-18T02:38:13.544Z,99135.02
2023-06-18T02:40:43.422Z,99140.91
2023-06-18T02:43:13.988Z,99140.52
2023-06-18T02:45:44.205Z,99137.23
2023-06-18T02:48:16.684Z,99139.68
2023-06-18T02:50:46.452Z,99132.85
2023-06-18T02:53:16.544Z,99137.95
2023-06-18T02:55:46.619Z,99141.33
2023-06-18T02:58:29.262Z,99140.77
2023-06-18T03:01:03.509Z,99137.02
2023-06-18T03:03:38.821Z,99135.32
2023-06-18T03:06:08.620Z,99139.80
2023-06-18T03:08:38.374Z,99140.41
2023-06-18T03:11:08.494Z,99142.14
2023-06-18T03:13:39.615Z,99142.96
2023-06-18T03:16:09.480Z,99139.30
2023-06-18T03:18:39.598Z,99142.81
2023-06-18T03:21:09.738Z,99144.65
2023-06-18T03:23:39.835Z,99149.48
2023-06-18T03:26:11.209Z,99150.45
2023-06-18T03:28:42.020Z,99152.13
2023-06-18T03:31:11.947Z,99156.46
2023-06-18T03:33:43.040Z,99156.70
2023-06-18T03:36:16.713Z,99153.98
2023-06-18T03:38:47.205Z,99155.89
2023-06-18T03:41:17.223Z,99154.75
2023-06-18T03:43:47.243Z,99155.29
2023-06-18T03:46:17.321Z,99156.11
2023-06-18T03:48:47.282Z,99156.32
2023-06-18T03:51:17.323Z,99157.41
2023-06-18T03:53:47.294Z,99159.59
2023-06-18T03:56:18.265Z,99160.46
2023-06-18T03:58:49.673Z,99162.20
2023-06-18T04:01:20.000Z,99163.90
2023-06-18T04:03:50.131Z,99164.30
2023-06-18T04:06:20.042Z,99162.74
2023-06-18T04:08:51.041Z,99166.92
2023-06-18T04:11:21.264Z,99168.92
2023-06-18T04:13:52.179Z,99171.65
2023-06-18T04:16:22.446Z,99170.73
2023-06-18T04:18:52.339Z,99171.54
2023-06-18T04:21:22.728Z,99173.86
2023-06-18T04:23:53.339Z,99171.39
2023-06-18T04:26:25.093Z,99177.78
2023-06-18T04:28:55.746Z,99180.13
2023-06-18T04:31:26.523Z,99178.45
2023-06-18T04:33:56.793Z,99181.98
2023-06-18T04:36:26.893Z,99179.55
2023-06-18T04:38:57.121Z,99182.66
2023-06-18T04:41:27.431Z,99176.49
2023-06-18T04:43:57.446Z,99183.48
2023-06-18T04:46:27.265Z,99187.09
2023-06-18T04:49:00.513Z,99187.86
2023-06-18T04:51:31.103Z,99189.09
2023-06-18T04:54:01.137Z,99192.02
2023-06-18T04:56:31.604Z,99197.73
2023-06-18T04:59:01.615Z,99201.23
2023-06-18T05:01:31.419Z,99205.14
2023-06-18T05:04:01.740Z,99204.16
2023-06-18T05:06:32.378Z,99204.48
2023-06-18T05:09:02.723Z,99204.77
2023-06-18T05:11:32.960Z,99202.95
2023-06-18T05:14:04.474Z,99205.14
2023-06-18T05:16:36.153Z,99204.52
2023-06-18T05:19:06.427Z,99207.52
2023-06-18T05:21:36.739Z,99211.59
2023-06-18T05:24:08.589Z,99212.83
2023-06-18T05:26:40.349Z,99218.29
2023-06-18T05:29:10.951Z,99219.45
2023-06-18T05:31:41.126Z,99220.44
2023-06-18T05:34:15.925Z,99219.60
2023-06-18T05:36:46.403Z,99224.90
2023-06-18T05:39:16.485Z,99223.52
2023-06-18T05:41:46.497Z,99227.79
2023-06-18T05:44:16.618Z,99234.36
2023-06-18T05:46:46.665Z,99235.52
2023-06-18T05:49:17.709Z,99233.09
2023-06-18T05:51:48.676Z,99231.13
2023-06-18T05:54:18.832Z,99236.42
2023-06-18T05:56:49.123Z,99231.73
2023-06-18T05:59:20.043Z,99235.38
2023-06-18T06:01:53.208Z,99231.60
2023-06-18T06:04:23.170Z,99239.79
2023-06-18T06:06:53.722Z,99236.83
2023-06-18T06:09:23.878Z,99241.94
2023-06-18T06:11:54.164Z,99245.03
2023-06-18T06:14:23.979Z,99244.09
2023-06-18T06:16:58.845Z,99249.20
2023-06-18T06:19:30.078Z,99250.02
2023-06-18T06:21:59.981Z,99250.08
2023-06-18T06:24:31.018Z,99252.18
2023-06-18T06:27:01.199Z,99250.30
2023-06-18T06:29:32.925Z,99255.86
2023-06-18T06:32:02.973Z,99256.27
2023-06-18T06:34:32.956Z,99257.30
2023-06-18T06:37:03.623Z,99257.20
2023-06-18T06:39:33.810Z,99263.41
2023-06-18T06:42:04.382Z,99263.20
2023-06-18T06:44:34.870Z,99260.96
2023-06-18T06:47:19.368Z,99260.98
2023-06-18T06:50:10.460Z,99258.60
2023-06-18T06:52:56.169Z,99256.09
2023-06-18T06:55:26.140Z,99260.20
2023-06-18T06:57:56.104Z,99262.63
2023-06-18T07:00:26.499Z,99262.80
2023-06-18T07:02:57.588Z,99266.73
2023-06-18T07:05:28.533Z,99267.21
2023-06-18T07:07:58.631Z,99265.40
2023-06-18T07:10:28.683Z,99268.89
2023-06-18T07:12:59.045Z,99264.11
2023-06-18T07:15:28.988Z,99263.75
2023-06-18T07:17:59.117Z,99263.73
2023-06-18T07:20:29.306Z,99268.60
2023-06-18T07:22:59.764Z,99271.64
2023-06-18T07:25:29.788Z,99272.35
2023-06-18T07:27:59.535Z,99271.98
2023-06-18T07:30:29.441Z,99272.58
2023-06-18T07:32:59.511Z,99272.27
2023-06-18T07:35:29.484Z,99275.04
2023-06-18T07:37:59.421Z,99273.58
2023-06-18T07:40:33.920Z,99276.01
2023-06-18T07:43:03.939Z,99273.57
2023-06-18T07:45:33.983Z,99273.78
2023-06-18T07:48:04.095Z,99273.94
2023-06-18T07:50:34.411Z,99273.00
2023-06-18T07:53:04.149Z,99268.91
2023-06-18T07:55:33.955Z,99273.12
2023-06-18T07:58:03.985Z,99272.88
2023-06-18T08:00:34.016Z,99275.55
2023-06-18T08:03:03.879Z,99277.02
2023-06-18T08:05:33.811Z,99277.22
2023-06-18T08:08:03.865Z,99279.39
2023-06-18T08:10:34.049Z,99278.13
2023-06-18T08:13:04.456Z,99277.27
2023-06-18T08:15:35.105Z,99276.42
2023-06-18T08:18:05.195Z,99273.93
2023-06-18T08:20:35.176Z,99275.13
2023-06-18T08:23:04.969Z,99270.59
2023-06-18T08:25:36.570Z,99268.66
2023-06-18T08:28:06.606Z,99266.50
2023-06-18T08:30:36.482Z,99268.95
2023-06-18T08:33:06.559Z,99268.50
2023-06-18T08:35:38.470Z,99271.38
2023-06-18T08:38:08.310Z,99270.05
2023-06-18T08:40:49.747Z,99268.98
2023-06-18T08:43:23.941Z,99270.45
2023-06-18T08:45:54.668Z,99270.89
2023-06-18T08:48:32.419Z,99272.64
2023-06-18T08:51:05.648Z,99269.54
2023-06-18T08:53:41.674Z,99267.95
2023-06-18T08:56:11.637Z,99266.48
2023-06-18T08:58:49.771Z,99264.92
2023-06-18T09:01:21.020Z,99260.56
2023-06-18T09:03:51.040Z,99261.06
2023-06-18T09:06:20.776Z,99261.44
2023-06-18T10:04:34.544Z,99257.52
2023-06-18T10:07:06.458Z,99258.77
2023-06-18T10:09:38.189Z,99257.67
2023-06-18T10:12:09.532Z,99256.70
2023-06-18T10:14:39.775Z,99254.58
2023-06-18T10:17:15.642Z,99249.83
2023-06-18T10:19:48.223Z,99251.80
2023-06-18T10:22:18.369Z,99247.60
2023-06-18T10:24:54.103Z,99251.03
2023-06-18T10:27:24.206Z,99250.89
2023-06-18T10:29:54.282Z,99248.19
2023-06-18T10:32:24.627Z,99247.18
2023-06-18T10:34:56.688Z,99246.91
2023-06-18T10:37:26.554Z,99246.10
2023-06-18T10:39:57.129Z,99242.31
2023-06-18T10:42:27.243Z,99245.38
2023-06-18T10:44:59.181Z,99241.13
2023-06-18T10:47:30.084Z,99240.75
2023-06-18T10:50:17.677Z,99238.55
2023-06-18T10:52:51.096Z,99239.61
2023-06-18T10:55:32.353Z,99242.92
2023-06-18T10:58:04.284Z,99239.78
2023-06-18T11:00:36.707Z,99239.38
2023-06-18T11:03:07.323Z,99239.88
2023-06-18T11:05:48.285Z,99241.15
2023-06-18T11:08:27.245Z,99240.69
2023-06-18T11:11:04.465Z,99241.27
2023-06-18T11:13:36.695Z,99239.30
2023-06-18T11:16:15.236Z,99241.65
2023-06-18T11:18:45.518Z,99240.45
2023-06-18T11:21:18.186Z,99242.64
2023-06-18T11:23:48.058Z,99241.34
2023-06-18T11:26:18.927Z,99241.11
2023-06-18T11:28:49.328Z,99243.39
2023-06-18T11:31:19.427Z,99245.98
2023-06-18T11:33:49.538Z,99246.34
2023-06-18T11:36:20.977Z,99247.49
2023-06-18T11:38:52.630Z,99247.11
2023-06-18T11:41:23.574Z,99248.36
2023-06-18T11:43:54.090Z,99246.33
2023-06-18T11:46:31.380Z,99243.13
2023-06-18T11:49:01.298Z,99241.17
2023-06-18T11:51:32.229Z,99241.39
2023-06-18T11:54:02.728Z,99244.15
2023-06-18T11:56:32.782Z,99244.65
2023-06-18T11:59:02.632Z,99240.21
2023-06-18T12:01:33.679Z,99243.77
2023-06-18T12:04:05.688Z,99246.52
2023-06-18T12:06:35.810Z,99242.35
2023-06-18T12:09:09.638Z,99236.89
2023-06-18T12:11:48.704Z,99231.77
2023-06-18T12:24:57.875Z,99230.60
2023-06-18T12:27:28.147Z,99228.46
2023-06-18T12:30:01.519Z,99230.13
2023-06-18T12:32:32.041Z,99228.83
2023-06-18T12:35:11.703Z,99224.80
2023-06-18T12:37:45.988Z,99222.39
2023-06-18T12:40:22.805Z,99223.63
2023-06-18T12:42:53.169Z,99223.62
2023-06-18T12:45:31.206Z,99221.73
2023-06-18T12:48:12.332Z,99220.46
2023-06-18T12:50:48.970Z,99221.38
2023-06-18T12:53:23.521Z,99217.23
2023-06-18T12:55:57.307Z,99216.67
2023-06-18T12:58:27.931Z,99219.80
2023-06-18T13:00:59.491Z,99215.70
2023-06-18T13:03:29.593Z,99214.61
2023-06-18T13:06:00.247Z,99210.19
2023-06-18T13:08:30.848Z,99209.29
2023-06-18T13:11:01.676Z,99207.92
2023-06-18T13:13:31.602Z,99206.40
2023-06-18T13:16:04.265Z,99200.98
2023-06-18T13:18:34.739Z,99198.79
2023-06-18T13:21:05.134Z,99193.88
2023-06-18T13:23:35.447Z,99190.51
2023-06-18T13:26:05.634Z,99189.28
2023-06-18T13:28:35.553Z,99188.56
2023-06-18T13:31:05.644Z,99185.95
2023-06-18T13:33:36.371Z,99187.54
2023-06-18T13:36:09.796Z,99185.47
2023-06-18T13:38:41.285Z,99184.13
2023-06-18T13:41:11.934Z,99184.38
2023-06-18T13:43:41.654Z,99176.46
2023-06-18T13:46:11.975Z,99178.85
2023-06-18T13:48:42.711Z,99177.39
2023-06-18T13:51:12.965Z,99175.80
2023-06-18T13:53:42.821Z,99172.89
2023-06-18T13:56:12.750Z,99175.02
2023-06-18T13:58:43.589Z,99170.34
2023-06-18T14:01:13.861Z,99170.05
2023-06-18T14:03:43.811Z,99170.36
2023-06-18T14:06:13.605Z,99173.61
2023-06-18T14:08:44.542Z,99171.77
2023-06-18T14:11:14.461Z,99175.05
2023-06-18T14:13:45.335Z,99175.58
2023-06-18T14:16:15.601Z,99171.81
2023-06-18T14:18:45.542Z,99169.48
2023-06-18T14:21:15.669Z,99169.44
2023-06-18T14:23:46.504Z,99166.69
2023-06-18T14:26:17.012Z,99167.42
2023-06-18T14:28:46.790Z,99164.77
2023-06-18T14:31:16.912Z,99163.61
2023-06-18T14:33:53.033Z,99166.20
2023-06-18T14:36:38.865Z,99168.14
2023-06-18T14:39:10.069Z,99172.20
2023-06-18T14:41:41.053Z,99172.16
2023-06-18T14:44:11.043Z,99174.92
2023-06-18T14:46:41.503Z,99177.16
2023-06-18T14:49:11.397Z,99179.52
2023-06-18T14:51:41.358Z,99186.83
2023-06-18T14:54:14.988Z,99183.37
2023-06-18T14:56:47.551Z,99186.20
2023-06-18T14:59:18.407Z,99187.47
2023-06-18T15:01:48.773Z,99188.40
2023-06-18T15:04:19.305Z,99185.73
2023-06-18T15:06:49.932Z,99181.99
2023-06-18T15:09:20.161Z,99177.48
2023-06-18T15:11:50.110Z,99178.15
2023-06-18T15:14:20.125Z,99176.84
2023-06-18T15:16:50.702Z,99177.73
2023-06-18T15:19:21.277Z,99180.05
2023-06-18T15:21:51.086Z,99178.20
2023-06-18T15:24:21.148Z,99177.33
2023-06-18T15:26:51.398Z,99171.55
2023-06-18T15:29:21.346Z,99174.76
2023-06-18T15:31:52.808Z,99174.45
2023-06-18T15:34:23.167Z,99173.02
2023-06-18T15:36:53.075Z,99170.23
2023-06-18T15:39:23.073Z,99177.08
2023-06-18T15:41:53.268Z,99180.48
2023-06-18T15:44:23.159Z,99182.00
2023-06-18T15:46:53.196Z,99183.71
2023-06-18T15:49:23.095Z,99178.89
2023-06-18T15:51:53.340Z,99177.11
2023-06-18T15:54:23.510Z,99178.67
2023-06-18T15:56:53.379Z,99179.17
2023-06-18T15:59:23.624Z,99179.48
2023-06-18T16:01:53.577Z,99184.05
2023-06-18T16:04:24.647Z,99188.27
2023-06-18T16:06:57.108Z,99184.20
2023-06-18T16:09:27.222Z,99185.74
2023-06-18T16:11:57.099Z,99189.46
2023-06-18T16:14:27.700Z,99186.91
2023-06-18T16:16:57.757Z,99187.76
2023-06-18T16:19:27.932Z,99192.52
2023-06-18T16:21:57.984Z,99191.98
2023-06-18T16:24:28.018Z,99192.29
2023-06-18T16:27:00.926Z,99194.77
2023-06-18T16:29:30.856Z,99197.55
2023-06-18T16:32:00.740Z,99200.30
2023-06-18T16:34:30.914Z,99201.99
2023-06-18T16:37:01.326Z,99199.48
2023-06-18T16:39:31.320Z,99205.48
2023-06-18T16:42:01.323Z,99206.70
2023-06-18T16:44:31.800Z,99209.25
2023-06-18T16:47:01.636Z,99207.66
2023-06-18T16:49:31.941Z,99210.71
2023-06-18T16:52:01.851Z,99210.34
2023-06-18T16:54:32.812Z,99211.25
2023-06-18T16:57:02.989Z,99217.25
2023-06-18T16:59:33.044Z,99220.59
2023-06-18T17:02:03.620Z,99219.23
2023-06-18T17:04:34.768Z,99220.77
2023-06-18T17:07:06.519Z,99216.64
2023-06-18T17:09:37.152Z,99219.92
2023-06-18T17:12:09.005Z,99217.80
2023-06-18T17:14:39.229Z,99218.96
2023-06-18T17:17:09.256Z,99218.88
2023-06-18T17:19:39.633Z,99221.89
2023-06-18T17:22:10.405Z,99218.23
2023-06-18T17:24:41.204Z,99224.17
2023-06-18T17:27:12.800Z,99221.41
2023-06-18T17:29:43.630Z,99223.09
2023-06-18T17:32:14.191Z,99222.91
2023-06-18T17:34:44.349Z,99227.41
2023-06-18T17:37:14.628Z,99229.39
2023-06-18T17:39:45.138Z,99229.92
2023-06-18T17:42:15.470Z,99231.48
2023-06-18T17:44:45.718Z,99230.36
2023-06-18T17:47:15.914Z,99229.89
2023-06-18T17:49:49.988Z,99229.23
2023-06-18T17:52:20.125Z,99238.48
2023-06-18T17:54:50.262Z,99240.52
2023-06-18T17:57:20.212Z,99244.98
2023-06-18T17:59:50.180Z,99245.20
2023-06-18T18:02:20.071Z,99245.16
2023-06-18T18:04:50.577Z,99251.02
2023-06-18T18:07:21.649Z,99253.39
2023-06-18T18:09:52.152Z,99252.86
2023-06-18T18:12:22.001Z,99252.91
2023-06-18T18:14:52.219Z,99255.58
2023-06-18T18:17:22.303Z,99255.33
2023-06-18T18:19:56.122Z,99259.00
2023-06-18T18:22:26.041Z,99259.21
2023-06-18T18:24:56.128Z,99264.43
2023-06-18T18:27:26.110Z,99266.18
2023-06-18T18:29:56.028Z,99263.63
2023-06-18T18:32:26.200Z,99266.15
2023-06-18T18:34:56.355Z,99271.13
2023-06-18T18:37:26.479Z,99272.62
2023-06-18T18:39:56.695Z,99274.96
2023-06-18T18:42:27.247Z,99276.01
2023-06-18T18:44:57.192Z,99280.24
2023-06-18T18:47:27.368Z,99279.92
2023-06-18T18:49:57.669Z,99280.17
2023-06-18T18:52:28.577Z,99280.40
2023-06-18T18:54:58.773Z,99282.95
2023-06-18T18:57:28.991Z,99289.90
2023-06-18T18:59:59.466Z,99285.02
2023-06-18T19:02:30.504Z,99283.19
2023-06-18T19:05:00.694Z,99281.84
2023-06-18T19:07:31.033Z,99278.80
2023-06-18T19:10:01.043Z,99282.64
2023-06-18T19:12:31.265Z,99283.23
2023-06-18T19:15:02.582Z,99282.02
2023-06-18T19:17:33.372Z,99283.98
2023-06-18T19:20:04.399Z,99281.22
2023-06-18T19:22:35.221Z,99281.16
2023-06-18T19:25:07.659Z,99287.02
2023-06-18T19:27:38.070Z,99287.51
2023-06-18T19:30:09.706Z,99289.33
2023-06-18T19:32:39.835Z,99289.08
2023-06-18T19:35:11.061Z,99287.59
2023-06-18T19:49:31.533Z,99292.68
2023-06-18T19:52:01.587Z,99289.92
2023-06-18T19:54:33.873Z,99289.98
2023-06-18T19:57:04.250Z,99292.70
2023-06-18T19:59:36.296Z,99291.84
2023-06-18T20:02:06.433Z,99290.96
2023-06-18T20:04:36.458Z,99293.88
2023-06-18T20:07:06.788Z,99297.54
2023-06-18T20:09:36.865Z,99296.44
2023-06-18T20:12:09.038Z,99297.86
2023-06-18T20:14:39.072Z,99296.34
2023-06-18T20:17:11.184Z,99293.31
2023-06-18T20:19:41.436Z,99294.40
2023-06-18T20:22:11.754Z,99298.33
2023-06-18T20:24:41.825Z,99294.07
2023-06-18T20:27:11.737Z,99294.71
2023-06-18T20:29:42.825Z,99293.61
2023-06-18T20:32:12.736Z,99296.85
2023-06-18T20:34:42.641Z,99300.20
2023-06-18T20:37:14.894Z,99304.68
2023-06-18T20:39:45.661Z,99307.09
2023-06-18T20:42:15.579Z,99309.16
2023-06-18T20:44:46.078Z,99310.55
2023-06-18T20:47:16.390Z,99313.25
2023-06-18T20:49:46.678Z,99311.73
2023-06-18T20:52:17.033Z,99312.31
2023-06-18T20:54:47.241Z,99310.13
2023-06-18T20:57:17.574Z,99303.24
2023-06-18T20:59:49.651Z,99304.16
2023-06-18T21:02:23.710Z,99300.96
2023-06-18T21:04:53.902Z,99300.18
2023-06-18T21:07:23.959Z,99299.89
2023-06-18T21:09:54.158Z,99299.61
2023-06-18T21:12:24.158Z,99299.98
2023-06-18T21:14:54.352Z,99299.66
2023-06-18T21:17:24.419Z,99289.30
2023-06-18T21:19:54.350Z,99289.34
2023-06-18T21:22:24.338Z,99286.86
2023-06-18T21:24:54.714Z,99289.45
2023-06-18T21:27:24.716Z,99285.02
2023-06-18T21:29:54.733Z,99281.29
2023-06-18T21:32:24.700Z,99280.98
2023-06-18T21:34:54.936Z,99283.80
2023-06-18T21:37:25.116Z,99282.64
2023-06-18T21:39:55.081Z,99283.86
2023-06-18T21:42:25.382Z,99286.02
2023-06-18T21:44:55.433Z,99284.77
2023-06-18T21:47:25.432Z,99284.09
2023-06-18T21:49:55.546Z,99283.79
2023-06-18T21:52:25.790Z,99288.61
2023-06-18T21:54:55.946Z,99286.87
2023-06-18T21:57:26.565Z,99289.27
2023-06-18T21:59:57.809Z,99286.05
2023-06-18T22:02:28.065Z,99287.11
2023-06-18T22:04:58.050Z,99284.88
2023-06-18T22:07:28.516Z,99291.08
2023-06-18T22:09:58.595Z,99288.58
2023-06-18T22:12:28.469Z,99290.88
2023-06-18T22:14:58.443Z,99294.92
2023-06-18T22:17:29.303Z,99294.39
2023-06-18T22:19:59.245Z,99294.78
2023-06-18T22:22:29.493Z,99298.27
2023-06-18T22:24:59.755Z,99297.48
2023-06-18T22:27:29.610Z,99297.77
2023-06-18T22:30:00.056Z,99296.73
2023-06-18T22:32:30.015Z,99295.31
2023-06-18T22:34:59.872Z,99292.65
2023-06-18T22:37:30.303Z,99297.10
2023-06-18T22:40:02.189Z,99293.36
2023-06-18T22:42:33.421Z,99291.71
2023-06-18T22:45:03.477Z,99292.59
2023-06-18T22:47:33.739Z,99292.21
2023-06-18T22:50:03.947Z,99290.02
2023-06-18T22:52:33.934Z,99288.58
2023-06-18T22:55:04.712Z,99286.52
2023-06-18T22:57:34.771Z,99284.22
2023-06-18T23:00:09.423Z,99280.48
2023-06-18T23:02:39.658Z,99283.18
2023-06-18T23:05:10.176Z,99282.98
2023-06-18T23:07:40.426Z,99282.37
2023-06-18T23:10:12.055Z,99277.48
2023-06-18T23:12:42.243Z,99276.41
2023-06-18T23:15:13.402Z,99276.88
2023-06-18T23:17:43.358Z,99273.48
2023-06-18T23:20:14.461Z,99271.69
2023-06-18T23:22:49.374Z,99267.61
2023-06-18T23:25:19.841Z,99269.23
2023-06-18T23:27:49.954Z,99266.93
2023-06-18T23:30:20.378Z,99266.02
2023-06-18T23:32:50.592Z,99263.05
2023-06-18T23:35:20.553Z,99262.46
2023-06-18T23:37:50.820Z,99264.98
2023-06-18T23:40:23.373Z,99266.58
2023-06-18T23:42:53.946Z,99267.50
2023-06-18T23:45:23.802Z,99268.45
2023-06-18T23:47:53.853Z,99271.88
2023-06-18T23:50:24.126Z,99275.73
2023-06-18T23:52:54.143Z,99275.89
2023-06-18T23:55:25.250Z,99274.17
2023-06-18T23:57:55.340Z,99274.44
